createdAt,value
2022-09-07T00:02:44.929Z,22.83
2022-09-07T00:06:41.949Z,22.72
2022-09-07T00:10:39.095Z,22.85
2022-09-07T00:14:36.128Z,22.77
2022-09-07T00:18:33.379Z,22.80
2022-09-07T00:22:30.415Z,22.53
2022-09-07T00:26:30.353Z,22.78
2022-09-07T00:30:27.496Z,22.70
2022-09-07T00:34:24.527Z,22.31
2022-09-07T00:38:21.733Z,22.51
2022-09-07T00:42:23.093Z,22.38
2022-09-07T00:46:28.647Z,21.94
2022-09-07T00:50:42.887Z,22.15
2022-09-07T00:54:47.772Z,22.19
2022-09-07T00:58:45.057Z,22.24
2022-09-07T01:02:42.511Z,22.07
2022-09-07T01:06:41.151Z,21.91
2022-09-07T01:10:38.896Z,21.63
2022-09-07T01:14:41.893Z,21.60
2022-09-07T01:19:01.788Z,21.80
2022-09-07T01:23:16.468Z,21.95
2022-09-07T01:28:20.624Z,21.65
2022-09-07T01:32:53.763Z,21.40
2022-09-07T01:37:27.581Z,21.26
2022-09-07T01:42:01.495Z,21.49
2022-09-07T01:46:03.266Z,21.51
2022-09-07T01:50:18.972Z,21.41
2022-09-07T01:54:25.487Z,21.36
2022-09-07T01:58:33.330Z,21.18
2022-09-07T02:02:38.613Z,21.19
2022-09-07T02:06:50.345Z,21.30
2022-09-07T02:10:55.516Z,20.92
2022-09-07T02:15:04.202Z,20.94
2022-09-07T02:19:16.460Z,21.42
2022-09-07T02:23:28.970Z,21.59
2022-09-07T02:27:35.793Z,21.15
2022-09-07T02:31:33.659Z,21.05
2022-09-07T02:35:30.901Z,21.15
2022-09-07T02:39:28.002Z,21.12
2022-09-07T02:43:28.035Z,21.19
2022-09-07T02:47:46.141Z,21.21
2022-09-07T02:52:30.317Z,21.19
2022-09-07T02:56:56.037Z,21.17
2022-09-07T03:01:15.450Z,21.11
2022-09-07T03:05:24.745Z,20.83
2022-09-07T03:09:30.557Z,20.70
2022-09-07T03:13:29.728Z,20.88
2022-09-07T03:17:26.828Z,20.83
2022-09-07T03:21:24.013Z,20.64
2022-09-07T03:25:22.917Z,20.72
2022-09-07T03:29:20.412Z,20.75
2022-09-07T03:33:17.642Z,20.54
2022-09-07T03:37:14.923Z,20.58
2022-09-07T03:41:12.619Z,20.68
2022-09-07T03:45:10.599Z,20.64
2022-09-07T03:49:07.572Z,20.76
2022-09-07T03:53:04.566Z,20.70
2022-09-07T03:57:01.686Z,20.78
2022-09-07T04:01:01.029Z,20.74
2022-09-07T04:04:58.180Z,20.78
2022-09-07T04:08:56.752Z,20.85
2022-09-07T04:12:53.769Z,20.73
2022-09-07T04:16:51.109Z,20.72
2022-09-07T04:20:50.823Z,20.82
2022-09-07T04:24:50.140Z,20.51
2022-09-07T04:28:48.157Z,20.75
2022-09-07T04:32:47.776Z,20.64
2022-09-07T04:36:44.814Z,20.36
2022-09-07T04:40:42.170Z,20.82
2022-09-07T04:44:39.307Z,20.64
2022-09-07T04:48:36.646Z,20.69
2022-09-07T04:52:33.658Z,20.65
2022-09-07T04:56:32.530Z,20.82
2022-09-07T05:00:29.628Z,20.75
2022-09-07T05:04:26.653Z,20.63
2022-09-07T05:08:23.762Z,20.75
2022-09-07T05:12:20.839Z,20.61
2022-09-07T05:16:22.000Z,21.12
2022-09-07T05:20:20.485Z,20.98
2022-09-07T05:24:18.395Z,21.22
2022-09-07T05:28:19.275Z,21.34
2022-09-07T05:32:16.604Z,21.36
2022-09-07T05:36:14.000Z,22.07
2022-09-07T05:40:11.818Z,22.43
2022-09-07T05:48:26.383Z,23.08
2022-09-07T05:52:23.528Z,23.49
2022-09-07T05:56:20.505Z,23.63
2022-09-07T06:00:17.546Z,23.62
2022-09-07T06:04:14.588Z,23.79
2022-09-07T06:08:11.579Z,23.91
2022-09-07T06:12:08.579Z,24.17
2022-09-07T06:16:08.497Z,24.23
2022-09-07T06:20:07.498Z,24.55
2022-09-07T06:24:06.196Z,25.18
2022-09-07T06:28:03.682Z,25.63
2022-09-07T06:36:21.154Z,25.63
2022-09-07T06:40:18.161Z,25.22
2022-09-07T06:44:15.206Z,25.82
2022-09-07T06:48:12.229Z,25.99
2022-09-07T06:52:09.207Z,26.03
2022-09-07T06:56:09.913Z,26.17
2022-09-07T07:00:07.541Z,26.68
2022-09-07T07:04:04.669Z,26.53
2022-09-07T07:08:01.790Z,26.33
2022-09-07T07:11:58.790Z,26.52
2022-09-07T07:16:14.686Z,26.59
2022-09-07T07:20:11.762Z,26.25
2022-09-07T07:24:08.956Z,26.86
2022-09-07T07:32:23.351Z,27.80
2022-09-07T07:36:27.051Z,28.07
2022-09-07T07:40:27.684Z,28.55
2022-09-07T07:44:27.377Z,28.84
2022-09-07T07:57:03.137Z,28.76
2022-09-07T08:01:08.305Z,28.64
2022-09-07T08:05:05.917Z,29.18
2022-09-07T08:09:02.886Z,29.39
2022-09-07T08:13:00.342Z,29.11
2022-09-07T08:16:57.339Z,29.52
2022-09-07T08:20:58.709Z,29.65
2022-09-07T08:24:55.681Z,29.95
2022-09-07T08:28:52.939Z,30.31
2022-09-07T08:32:49.900Z,30.39
2022-09-07T08:36:46.841Z,30.07
2022-09-07T08:40:44.304Z,29.97
2022-09-07T08:45:12.709Z,30.59
2022-09-07T08:49:47.735Z,30.83
2022-09-07T08:53:48.655Z,30.75
2022-09-07T08:58:04.333Z,30.00
2022-09-07T09:06:46.350Z,31.33
2022-09-07T09:11:10.858Z,32.22
2022-09-07T09:15:31.177Z,32.36
2022-09-07T09:19:46.215Z,33.29
2022-09-07T09:23:51.288Z,33.45
2022-09-07T09:27:50.143Z,34.01
2022-09-07T09:31:47.467Z,34.52
2022-09-07T09:35:50.087Z,34.35
2022-09-07T09:40:02.190Z,34.89
2022-09-07T09:44:00.470Z,35.54
2022-09-07T09:48:00.073Z,36.74
2022-09-07T09:56:15.448Z,36.96
2022-09-07T10:00:29.338Z,38.00
2022-09-07T10:04:34.913Z,38.35
2022-09-07T10:08:37.176Z,37.45
2022-09-07T10:12:37.122Z,37.19
2022-09-07T10:16:42.919Z,37.65
2022-09-07T10:20:39.908Z,38.04
2022-09-07T10:24:40.288Z,39.28
2022-09-07T10:33:10.353Z,40.52
2022-09-07T10:37:12.712Z,40.60
2022-09-07T10:41:11.600Z,40.91
2022-09-07T10:45:30.280Z,41.57
2022-09-07T10:54:54.891Z,42.54
2022-09-07T11:04:47.758Z,43.19
2022-09-07T11:13:24.175Z,42.68
2022-09-07T11:17:26.594Z,42.81
2022-09-07T11:26:07.838Z,42.65
2022-09-07T11:30:29.934Z,43.41
2022-09-07T11:34:36.629Z,43.81
2022-09-07T11:38:42.064Z,43.24
2022-09-07T11:42:51.497Z,42.05
2022-09-07T11:46:55.885Z,42.01
2022-09-07T11:51:02.459Z,39.94
2022-09-07T11:55:11.778Z,37.97
2022-09-07T12:00:11.090Z,39.05
2022-09-07T12:04:41.858Z,40.56
2022-09-07T12:09:11.375Z,42.87
2022-09-07T12:13:35.516Z,44.24
2022-09-07T12:18:26.711Z,43.18
2022-09-07T12:22:23.698Z,43.70
2022-09-07T12:26:36.066Z,45.23
2022-09-07T12:30:36.067Z,45.07
2022-09-07T12:34:33.043Z,44.87
2022-09-07T12:38:34.044Z,44.44
2022-09-07T12:42:32.673Z,42.40
2022-09-07T12:46:34.972Z,42.02
2022-09-07T12:51:01.240Z,43.23
2022-09-07T12:55:29.132Z,43.29
2022-09-07T13:00:03.463Z,42.88
2022-09-07T13:04:27.026Z,41.58
2022-09-07T13:09:06.451Z,42.74
2022-09-07T13:13:16.850Z,43.18
2022-09-07T13:17:33.027Z,42.74
2022-09-07T13:21:51.027Z,41.67
2022-09-07T13:25:54.311Z,41.56
2022-09-07T13:30:05.063Z,41.52
2022-09-07T13:34:34.012Z,41.89
2022-09-07T13:38:35.588Z,41.33
2022-09-07T13:42:35.872Z,42.06
2022-09-07T13:47:13.486Z,43.09
2022-09-07T13:51:52.172Z,44.09
2022-09-07T13:55:58.908Z,43.15
2022-09-07T13:59:57.239Z,42.16
2022-09-07T14:03:56.194Z,42.84
2022-09-07T14:07:53.177Z,42.94
2022-09-07T14:11:56.502Z,42.86
2022-09-07T14:15:53.458Z,42.38
2022-09-07T14:19:51.991Z,41.92
2022-09-07T14:23:51.491Z,40.96
2022-09-07T14:27:49.874Z,40.12
2022-09-07T14:31:47.041Z,40.51
2022-09-07T14:35:44.379Z,41.58
2022-09-07T14:39:46.267Z,42.61
2022-09-07T14:43:56.271Z,42.04
2022-09-07T14:47:56.445Z,42.24
2022-09-07T14:51:54.906Z,43.17
2022-09-07T14:56:03.522Z,43.42
2022-09-07T15:00:32.122Z,43.18
2022-09-07T15:04:31.311Z,42.55
2022-09-07T15:08:47.026Z,41.44
2022-09-07T15:12:47.312Z,40.54
2022-09-07T15:21:13.788Z,42.16
2022-09-07T15:25:11.636Z,41.78
2022-09-07T15:29:11.581Z,41.33
2022-09-07T15:33:09.183Z,41.08
2022-09-07T15:38:01.114Z,41.23
2022-09-07T15:41:24.571Z,42.19
2022-09-07T15:45:21.759Z,42.34
2022-09-07T15:49:18.756Z,41.83
2022-09-07T15:57:56.734Z,41.19
2022-09-07T16:01:51.938Z,41.29
2022-09-07T16:05:49.420Z,40.95
2022-09-07T16:09:49.223Z,40.24
2022-09-07T16:13:54.838Z,40.08
2022-09-07T16:17:53.823Z,39.98
2022-09-07T16:21:51.132Z,39.85
2022-09-07T16:26:01.240Z,39.30
2022-09-07T16:29:59.594Z,38.49
2022-09-07T16:33:58.161Z,38.30
2022-09-07T16:42:12.280Z,37.14
2022-09-07T16:46:14.729Z,36.39
2022-09-07T16:50:11.717Z,35.92
2022-09-07T16:54:13.876Z,35.49
2022-09-07T17:02:27.849Z,35.18
2022-09-07T17:06:28.551Z,34.73
2022-09-07T17:10:26.252Z,34.51
2022-09-07T17:14:23.233Z,34.49
2022-09-07T17:19:28.869Z,34.15
2022-09-07T17:22:39.685Z,33.81
2022-09-07T17:26:39.515Z,33.68
2022-09-07T17:30:39.475Z,33.61
2022-09-07T17:34:36.874Z,33.38
2022-09-07T17:47:12.981Z,32.29
2022-09-07T17:51:10.825Z,32.34
2022-09-07T17:55:08.144Z,31.85
2022-09-07T18:03:22.257Z,31.11
2022-09-07T18:07:19.258Z,31.15
2022-09-07T18:15:42.484Z,30.65
2022-09-07T18:19:39.703Z,30.24
2022-09-07T18:23:39.790Z,30.20
2022-09-07T18:27:37.865Z,29.96
2022-09-07T18:31:35.071Z,29.86
2022-09-07T18:35:32.347Z,29.84
2022-09-07T18:39:29.775Z,29.66
2022-09-07T18:43:27.949Z,29.54
2022-09-07T18:47:28.796Z,29.65
2022-09-07T18:51:26.736Z,29.61
2022-09-07T18:55:24.238Z,29.42
2022-09-07T18:59:21.319Z,29.56
2022-09-07T19:03:18.298Z,29.47
2022-09-07T19:07:15.581Z,29.42
2022-09-07T19:11:24.168Z,29.32
2022-09-07T19:15:21.121Z,29.24
2022-09-07T19:19:18.210Z,29.24
2022-09-07T19:23:15.220Z,29.05
2022-09-07T19:27:12.363Z,29.18
2022-09-07T19:31:09.455Z,29.02
2022-09-07T19:35:06.888Z,29.00
2022-09-07T19:39:05.787Z,28.74
2022-09-07T19:43:03.155Z,28.74
2022-09-07T19:47:01.008Z,28.40
2022-09-07T19:51:04.352Z,28.60
2022-09-07T19:55:03.494Z,28.65
2022-09-07T19:59:00.466Z,28.65
2022-09-07T20:02:57.785Z,28.25
2022-09-07T20:06:54.704Z,28.03
2022-09-07T20:10:51.686Z,28.14
2022-09-07T20:14:48.679Z,28.12
2022-09-07T20:18:46.419Z,28.13
2022-09-07T20:22:43.450Z,27.82
2022-09-07T20:26:40.491Z,27.75
2022-09-07T20:30:43.884Z,27.59
2022-09-07T20:34:40.865Z,27.52
2022-09-07T20:38:44.346Z,27.48
2022-09-07T20:42:41.290Z,27.33
2022-09-07T20:46:38.367Z,27.44
2022-09-07T20:50:35.468Z,27.31
2022-09-07T20:54:35.082Z,27.23
2022-09-07T20:58:33.265Z,27.50
2022-09-07T21:02:31.562Z,27.38
2022-09-07T21:06:31.185Z,27.44
2022-09-07T21:10:28.173Z,27.17
2022-09-07T21:14:25.417Z,27.24
2022-09-07T21:18:22.928Z,27.24
2022-09-07T21:22:19.938Z,27.09
2022-09-07T21:26:20.986Z,27.04
2022-09-07T21:30:18.220Z,26.93
2022-09-07T21:34:16.391Z,26.93
2022-09-07T21:38:13.383Z,26.72
2022-09-07T21:42:10.489Z,26.80
2022-09-07T21:46:10.532Z,26.74
2022-09-07T21:50:08.025Z,26.84
2022-09-07T21:54:05.312Z,26.87
2022-09-07T21:58:02.320Z,26.80
2022-09-07T22:01:59.395Z,26.73
2022-09-07T22:05:56.437Z,26.61
2022-09-07T22:09:55.165Z,26.71
2022-09-07T22:13:57.633Z,26.79
2022-09-07T22:17:55.275Z,26.69
2022-09-07T22:21:53.439Z,26.52
2022-09-07T22:25:53.369Z,26.68
2022-09-07T22:29:50.355Z,26.87
2022-09-07T22:33:49.870Z,27.19
2022-09-07T22:37:46.927Z,27.07
2022-09-07T22:41:45.562Z,26.88
2022-09-07T22:45:42.481Z,26.81
2022-09-07T22:49:39.451Z,26.74
2022-09-07T22:53:40.350Z,26.77
2022-09-07T22:57:37.554Z,26.87
2022-09-07T23:01:36.517Z,26.72
2022-09-07T23:05:37.283Z,26.73
2022-09-07T23:09:34.433Z,26.32
2022-09-07T23:13:33.371Z,26.22
2022-09-07T23:17:31.108Z,25.72
2022-09-07T23:21:28.621Z,25.70
2022-09-07T23:25:29.652Z,25.65
2022-09-07T23:29:26.686Z,25.32
2022-09-07T23:33:23.840Z,25.45
2022-09-07T23:37:21.164Z,25.20
2022-09-07T23:41:18.122Z,25.44
2022-09-07T23:45:17.645Z,25.05
2022-09-07T23:49:14.744Z,25.39
2022-09-07T23:53:13.058Z,25.34
2022-09-07T23:57:10.111Z,25.37
